createdAt,value
2023-04-30T00:00:46.096Z,101457.59
2023-04-30T00:03:14.228Z,101429.38
2023-04-30T00:05:42.500Z,101467.34
2023-04-30T00:08:11.321Z,101456.63
2023-04-30T00:10:39.488Z,101477.78
2023-04-30T00:13:10.347Z,101477.78
2023-04-30T00:15:38.587Z,101468.19
2023-04-30T00:18:07.395Z,101478.47
2023-04-30T00:20:35.801Z,101481.13
2023-04-30T00:23:05.239Z,101485.56
2023-04-30T00:25:33.345Z,101481.16
2023-04-30T00:28:01.679Z,101488.25
2023-04-30T00:30:32.210Z,101481.13
2023-04-30T00:33:00.538Z,101477.53
2023-04-30T00:35:28.705Z,101494.16
2023-04-30T00:37:57.136Z,101484.44
2023-04-30T00:40:25.534Z,101505.56
2023-04-30T00:42:55.856Z,101487.91
2023-04-30T00:45:24.449Z,101506.41
2023-04-30T00:47:54.437Z,101494.66
2023-04-30T00:50:25.987Z,101505.25
2023-04-30T00:52:54.255Z,101503.56
2023-04-30T00:55:22.884Z,101510.53
2023-04-30T00:57:53.084Z,101506.22
2023-04-30T01:00:24.049Z,101503.44
2023-04-30T01:02:54.231Z,101519.22
2023-04-30T01:05:23.161Z,101503.44
2023-04-30T01:07:52.500Z,101508.78
2023-04-30T01:10:27.930Z,101516.53
2023-04-30T01:13:04.236Z,101505.03
2023-04-30T01:15:44.289Z,101506.84
2023-04-30T01:18:20.151Z,101521.00
2023-04-30T01:20:54.730Z,101515.66
2023-04-30T01:23:36.409Z,101528.78
2023-04-30T01:26:17.238Z,101523.41
2023-04-30T01:28:47.745Z,101527.00
2023-04-30T01:31:16.948Z,101538.25
2023-04-30T01:33:45.611Z,101536.56
2023-04-30T01:36:35.509Z,101529.59
2023-04-30T01:39:28.430Z,101539.88
2023-04-30T01:42:07.134Z,101548.59
2023-04-30T01:45:01.184Z,101539.78
2023-04-30T01:47:38.374Z,101534.53
2023-04-30T01:50:16.791Z,101545.19
2023-04-30T01:52:48.628Z,101531.28
2023-04-30T01:55:22.748Z,101543.59
2023-04-30T01:57:57.795Z,101550.44
2023-04-30T02:00:28.091Z,101547.22
2023-04-30T02:02:56.658Z,101539.00
2023-04-30T02:05:26.216Z,101555.75
2023-04-30T02:07:55.002Z,101546.78
2023-04-30T02:10:26.647Z,101551.13
2023-04-30T02:12:55.581Z,101560.09
2023-04-30T02:15:23.978Z,101550.41
2023-04-30T02:17:53.523Z,101547.72
2023-04-30T02:20:21.914Z,101572.97
2023-04-30T02:22:50.066Z,101543.06
2023-04-30T02:25:18.574Z,101569.53
2023-04-30T02:27:46.974Z,101573.03
2023-04-30T02:30:15.184Z,101553.72
2023-04-30T02:32:43.455Z,101574.72
2023-04-30T02:35:13.344Z,101583.44
2023-04-30T02:37:41.769Z,101571.00
2023-04-30T02:40:10.932Z,101541.09
2023-04-30T02:42:39.590Z,101574.72
2023-04-30T02:45:08.570Z,101558.72
2023-04-30T02:47:36.668Z,101576.50
2023-04-30T02:50:05.736Z,101561.72
2023-04-30T02:52:35.470Z,101574.78
2023-04-30T02:55:04.379Z,101582.59
2023-04-30T02:57:32.591Z,101583.22
2023-04-30T03:00:01.017Z,101586.97
2023-04-30T03:02:29.288Z,101571.09
2023-04-30T03:04:57.867Z,101587.06
2023-04-30T03:07:26.471Z,101589.31
2023-04-30T03:09:56.151Z,101586.69
2023-04-30T03:12:24.447Z,101586.97
2023-04-30T03:14:53.350Z,101580.06
2023-04-30T03:17:21.802Z,101582.44
2023-04-30T03:19:50.404Z,101593.91
2023-04-30T03:22:19.614Z,101557.00
2023-04-30T03:24:50.870Z,101584.19
2023-04-30T03:27:21.093Z,101588.38
2023-04-30T03:29:49.413Z,101588.59
2023-04-30T03:32:17.660Z,101591.72
2023-04-30T03:34:46.349Z,101611.16
2023-04-30T03:37:14.444Z,101609.44
2023-04-30T03:39:45.241Z,101561.00
2023-04-30T03:42:13.534Z,101625.41
2023-04-30T03:44:43.341Z,101621.84
2023-04-30T03:47:11.992Z,101615.34
2023-04-30T03:49:40.356Z,101623.09
2023-04-30T03:52:08.847Z,101630.91
2023-04-30T03:54:36.911Z,101621.22
2023-04-30T03:57:07.825Z,101615.72
2023-04-30T03:59:36.217Z,101645.06
2023-04-30T04:02:06.633Z,101632.88
2023-04-30T04:04:35.296Z,101644.38
2023-04-30T04:07:04.297Z,101642.31
2023-04-30T04:09:32.388Z,101649.53
2023-04-30T04:12:01.437Z,101633.72
2023-04-30T04:14:29.818Z,101654.84
2023-04-30T04:17:00.156Z,101647.06
2023-04-30T04:19:30.013Z,101648.69
2023-04-30T04:22:01.379Z,101649.63
2023-04-30T04:24:29.678Z,101638.78
2023-04-30T04:26:58.258Z,101654.78
2023-04-30T04:29:26.653Z,101646.13
2023-04-30T04:31:55.737Z,101659.19
2023-04-30T04:34:24.104Z,101661.06
2023-04-30T04:36:54.138Z,101658.47
2023-04-30T04:39:22.210Z,101655.97
2023-04-30T04:41:51.006Z,101661.81
2023-04-30T04:44:19.374Z,101662.06
2023-04-30T04:46:47.458Z,101665.69
2023-04-30T04:49:15.820Z,101668.44
2023-04-30T04:51:44.031Z,101677.28
2023-04-30T04:54:13.501Z,101663.03
2023-04-30T04:56:41.804Z,101681.41
2023-04-30T04:59:09.922Z,101693.88
2023-04-30T05:01:38.451Z,101686.66
2023-04-30T05:04:06.907Z,101677.16
2023-04-30T05:06:35.613Z,101693.88
2023-04-30T05:09:05.665Z,101699.06
2023-04-30T05:11:35.168Z,101697.28
2023-04-30T05:14:03.524Z,101672.69
2023-04-30T05:16:31.736Z,101704.16
2023-04-30T05:19:00.132Z,101699.41
2023-04-30T05:21:32.254Z,101700.84
2023-04-30T05:24:00.837Z,101686.22
2023-04-30T05:26:29.505Z,101711.28
2023-04-30T05:28:59.690Z,101673.19
2023-04-30T05:31:28.325Z,101713.75
2023-04-30T05:33:56.914Z,101719.09
2023-04-30T05:36:25.335Z,101710.22
2023-04-30T05:38:53.444Z,101669.34
2023-04-30T05:41:22.640Z,101718.72
2023-04-30T05:43:50.863Z,101722.34
2023-04-30T05:46:20.738Z,101706.47
2023-04-30T05:48:49.473Z,101732.03
2023-04-30T05:51:18.028Z,101732.78
2023-04-30T05:53:46.278Z,101732.81
2023-04-30T05:56:14.504Z,101734.72
2023-04-30T05:58:42.765Z,101742.69
2023-04-30T06:01:12.371Z,101743.78
2023-04-30T06:03:42.002Z,101742.16
2023-04-30T06:06:10.546Z,101742.00
2023-04-30T06:08:38.633Z,101733.22
2023-04-30T06:11:07.457Z,101742.66
2023-04-30T06:13:35.770Z,101747.00
2023-04-30T06:16:04.177Z,101744.69
2023-04-30T06:18:32.603Z,101763.72
2023-04-30T06:21:02.597Z,101741.75
2023-04-30T06:23:30.875Z,101750.53
2023-04-30T06:25:59.090Z,101751.41
2023-04-30T06:28:27.242Z,101755.84
2023-04-30T06:30:55.660Z,101762.75
2023-04-30T06:33:23.841Z,101762.47
2023-04-30T06:35:55.622Z,101761.47
2023-04-30T06:38:25.668Z,101771.63
2023-04-30T06:40:55.046Z,101762.75
2023-04-30T06:43:23.948Z,101759.13
2023-04-30T06:45:52.278Z,101764.81
2023-04-30T06:48:20.426Z,101733.06
2023-04-30T06:50:48.671Z,101754.16
2023-04-30T06:53:16.954Z,101763.78
2023-04-30T06:55:47.220Z,101767.13
2023-04-30T06:58:15.593Z,101769.94
2023-04-30T07:00:44.490Z,101768.56
2023-04-30T07:03:16.765Z,101775.41
2023-04-30T07:05:45.897Z,101776.69
2023-04-30T07:08:15.344Z,101775.34
2023-04-30T07:10:43.823Z,101779.06
2023-04-30T07:13:13.546Z,101787.41
2023-04-30T07:15:42.309Z,101769.88
2023-04-30T07:18:10.671Z,101791.13
2023-04-30T07:20:38.980Z,101783.75
2023-04-30T07:23:07.094Z,101803.88
2023-04-30T07:25:36.874Z,101785.66
2023-04-30T07:28:05.378Z,101795.28
2023-04-30T07:30:35.467Z,101791.34
2023-04-30T07:33:03.761Z,101793.88
2023-04-30T07:35:32.266Z,101793.00
2023-04-30T07:38:00.382Z,101806.28
2023-04-30T07:40:35.791Z,101799.91
2023-04-30T07:43:05.187Z,101827.44
2023-04-30T07:45:35.963Z,101811.00
2023-04-30T07:48:04.661Z,101824.81
2023-04-30T07:50:34.518Z,101815.97
2023-04-30T07:53:03.370Z,101833.66
2023-04-30T07:55:31.589Z,101826.69
2023-04-30T07:58:00.197Z,101822.44
2023-04-30T08:00:31.434Z,101837.47
2023-04-30T08:03:01.653Z,101802.41
2023-04-30T08:05:30.051Z,101837.84
2023-04-30T08:08:02.103Z,101821.34
2023-04-30T08:10:30.468Z,101840.47
2023-04-30T08:12:58.624Z,101829.97
2023-04-30T08:15:28.212Z,101826.03
2023-04-30T08:17:57.241Z,101812.91
2023-04-30T08:20:27.318Z,101839.28
2023-04-30T08:22:55.714Z,101833.09
2023-04-30T08:25:23.887Z,101834.09
2023-04-30T08:27:51.967Z,101833.28
2023-04-30T08:30:20.794Z,101839.38
2023-04-30T08:32:51.099Z,101839.28
2023-04-30T08:35:19.639Z,101823.34
2023-04-30T08:37:50.693Z,101843.69
2023-04-30T08:40:20.332Z,101823.38
2023-04-30T08:42:55.573Z,101842.72
2023-04-30T08:45:24.422Z,101856.72
2023-04-30T08:47:54.289Z,101835.50
2023-04-30T08:50:24.611Z,101863.53
2023-04-30T08:52:54.409Z,101851.28
2023-04-30T08:55:22.699Z,101870.81
2023-04-30T08:57:51.153Z,101878.53
2023-04-30T09:00:21.183Z,101875.22
2023-04-30T09:02:51.013Z,101878.63
2023-04-30T09:05:22.798Z,101851.41
2023-04-30T09:08:02.465Z,101886.78
2023-04-30T09:10:35.520Z,101865.34
2023-04-30T09:13:06.062Z,101879.50
2023-04-30T09:15:37.097Z,101884.88
2023-04-30T09:18:13.326Z,101893.56
2023-04-30T09:20:57.718Z,101879.53
2023-04-30T09:23:26.676Z,101868.56
2023-04-30T09:25:56.901Z,101884.78
2023-04-30T09:28:27.567Z,101891.91
2023-04-30T09:30:58.177Z,101892.00
2023-04-30T09:33:46.648Z,101895.50
2023-04-30T09:36:15.205Z,101897.81
2023-04-30T09:38:43.352Z,101865.09
2023-04-30T09:41:24.714Z,101891.66
2023-04-30T09:43:53.431Z,101898.59
2023-04-30T09:46:22.741Z,101885.63
2023-04-30T09:48:59.497Z,101890.47
2023-04-30T09:51:28.490Z,101884.25
2023-04-30T09:53:57.414Z,101893.78
2023-04-30T09:56:30.299Z,101900.16
2023-04-30T09:58:58.854Z,101910.47
2023-04-30T10:01:28.293Z,101907.31
2023-04-30T10:03:57.139Z,101912.50
2023-04-30T10:06:30.022Z,101917.41
2023-04-30T10:08:59.409Z,101918.97
2023-04-30T10:11:34.173Z,101911.97
2023-04-30T10:14:05.515Z,101908.56
2023-04-30T10:16:42.102Z,101903.72
2023-04-30T10:19:15.819Z,101896.59
2023-04-30T10:21:46.947Z,101921.03
2023-04-30T10:24:18.707Z,101892.75
2023-04-30T10:26:49.886Z,101912.28
2023-04-30T10:29:19.950Z,101908.75
2023-04-30T10:31:50.496Z,101920.28
2023-04-30T10:34:30.636Z,101905.72
2023-04-30T10:37:02.256Z,101914.50
2023-04-30T10:39:31.406Z,101889.72
2023-04-30T10:42:05.826Z,101898.84
2023-04-30T10:44:35.350Z,101879.66
2023-04-30T10:47:04.967Z,101882.94
2023-04-30T10:49:33.405Z,101904.25
2023-04-30T10:52:03.665Z,101902.47
2023-04-30T10:54:34.531Z,101913.03
2023-04-30T10:57:14.671Z,101910.31
2023-04-30T10:59:53.858Z,101921.72
2023-04-30T11:02:22.741Z,101916.38
2023-04-30T11:05:13.876Z,101927.03
2023-04-30T11:07:52.445Z,101915.78
2023-04-30T11:10:23.777Z,101918.66
2023-04-30T11:12:54.908Z,101922.22
2023-04-30T11:15:26.353Z,101915.19
2023-04-30T11:17:59.071Z,101925.69
2023-04-30T11:20:29.646Z,101920.53
2023-04-30T11:23:11.508Z,101927.59
2023-04-30T11:25:43.761Z,101917.13
2023-04-30T11:28:18.593Z,101918.84
2023-04-30T11:30:53.849Z,101906.44
2023-04-30T11:33:23.143Z,101897.59
2023-04-30T11:35:53.455Z,101915.31
2023-04-30T11:38:23.770Z,101919.78
2023-04-30T11:40:52.700Z,101911.78
2023-04-30T11:43:27.053Z,101916.03
2023-04-30T11:46:09.673Z,101907.38
2023-04-30T11:48:39.750Z,101931.22
2023-04-30T11:51:16.212Z,101921.44
2023-04-30T11:53:44.553Z,101929.41
2023-04-30T11:56:13.085Z,101898.31
2023-04-30T11:58:43.238Z,101918.63
2023-04-30T12:01:11.951Z,101925.66
2023-04-30T12:03:44.566Z,101932.53
2023-04-30T12:06:13.848Z,101920.28
2023-04-30T12:08:43.992Z,101936.00
2023-04-30T12:11:26.050Z,101916.72
2023-04-30T12:13:57.329Z,101912.31
2023-04-30T12:16:26.929Z,101926.34
2023-04-30T12:18:55.953Z,101939.66
2023-04-30T12:21:24.884Z,101922.31
2023-04-30T12:23:54.667Z,101940.81
2023-04-30T12:26:23.448Z,101934.72
2023-04-30T12:28:52.834Z,101934.72
2023-04-30T12:31:22.705Z,101938.16
2023-04-30T12:33:57.515Z,101932.88
2023-04-30T12:36:32.997Z,101895.66
2023-04-30T12:39:18.877Z,101935.94
2023-04-30T12:41:48.563Z,101953.78
2023-04-30T12:44:18.643Z,101931.84
2023-04-30T12:46:49.111Z,101941.50
2023-04-30T12:49:30.709Z,101943.41
2023-04-30T12:52:02.370Z,101932.97
2023-04-30T12:54:32.794Z,101950.69
2023-04-30T12:57:03.293Z,101957.75
2023-04-30T12:59:32.773Z,101923.88
2023-04-30T13:02:13.685Z,101947.78
2023-04-30T13:04:43.097Z,101950.22
2023-04-30T13:07:11.526Z,101948.69
2023-04-30T13:09:40.322Z,101955.00
2023-04-30T13:12:08.713Z,101955.75
2023-04-30T13:14:37.312Z,101945.38
2023-04-30T13:17:12.683Z,101936.56
2023-04-30T13:19:42.835Z,101955.97
2023-04-30T13:22:11.089Z,101962.81
2023-04-30T13:24:39.524Z,101952.25
2023-04-30T13:27:07.981Z,101954.13
2023-04-30T13:29:37.208Z,101954.06
2023-04-30T13:32:06.314Z,101947.78
2023-04-30T13:34:34.446Z,101949.72
2023-04-30T13:37:04.095Z,101944.97
2023-04-30T13:39:32.402Z,101959.16
2023-04-30T13:42:01.508Z,101941.78
2023-04-30T13:44:32.877Z,101931.25
2023-04-30T13:47:01.642Z,101941.78
2023-04-30T13:49:31.269Z,101938.31
2023-04-30T13:52:00.900Z,101946.97
2023-04-30T13:54:30.580Z,101936.50
2023-04-30T13:57:02.432Z,101874.75
2023-04-30T13:59:31.923Z,101931.22
2023-04-30T14:02:02.505Z,101932.94
2023-04-30T14:04:31.333Z,101932.84
2023-04-30T14:06:59.962Z,101931.25
2023-04-30T14:09:29.246Z,101938.31
2023-04-30T14:11:59.420Z,101927.78
2023-04-30T14:14:30.997Z,101933.00
2023-04-30T14:16:59.808Z,101928.44
2023-04-30T14:19:28.200Z,101915.31
2023-04-30T14:21:56.938Z,101934.69
2023-04-30T14:24:26.270Z,101913.63
2023-04-30T14:26:54.340Z,101906.47
2023-04-30T14:29:24.158Z,101930.25
2023-04-30T14:31:52.510Z,101932.00
2023-04-30T14:34:21.111Z,101923.25
2023-04-30T14:36:49.835Z,101920.47
2023-04-30T14:39:17.987Z,101927.56
2023-04-30T14:41:46.116Z,101903.81
2023-04-30T14:44:14.356Z,101921.47
2023-04-30T14:46:44.090Z,101922.09
2023-04-30T14:49:12.258Z,101910.00
2023-04-30T14:51:40.701Z,101915.22
2023-04-30T14:54:09.108Z,101914.22
2023-04-30T14:56:37.260Z,101922.13
2023-04-30T14:59:05.853Z,101923.00
2023-04-30T15:01:34.309Z,101898.47
2023-04-30T15:04:04.379Z,101915.31
2023-04-30T15:06:35.153Z,101932.84
2023-04-30T15:09:03.890Z,101923.25
2023-04-30T15:11:32.080Z,101927.63
2023-04-30T15:14:00.287Z,101920.63
2023-04-30T15:16:29.334Z,101922.38
2023-04-30T15:18:58.036Z,101925.91
2023-04-30T15:21:29.088Z,101916.25
2023-04-30T15:23:57.502Z,101917.03
2023-04-30T15:26:26.035Z,101928.47
2023-04-30T15:28:58.488Z,101917.06
2023-04-30T15:31:26.996Z,101922.34
2023-04-30T15:33:55.669Z,101927.72
2023-04-30T15:36:24.725Z,101937.34
2023-04-30T15:38:54.735Z,101929.22
2023-04-30T15:41:24.543Z,101929.16
2023-04-30T15:43:52.806Z,101921.13
2023-04-30T15:46:21.689Z,101926.41
2023-04-30T15:48:49.867Z,101920.31
2023-04-30T15:51:18.021Z,101925.84
2023-04-30T15:53:46.342Z,101925.78
2023-04-30T15:56:15.996Z,101911.69
2023-04-30T15:58:44.677Z,101926.69
2023-04-30T16:01:12.859Z,101922.31
2023-04-30T16:03:41.165Z,101909.69
2023-04-30T16:06:09.897Z,101922.78
2023-04-30T16:08:38.430Z,101915.06
2023-04-30T16:11:08.170Z,101915.84
2023-04-30T16:13:38.248Z,101900.84
2023-04-30T16:16:11.146Z,101911.53
2023-04-30T16:18:39.493Z,101901.13
2023-04-30T16:21:10.152Z,101907.97
2023-04-30T16:23:41.499Z,101906.31
2023-04-30T16:26:09.773Z,101912.41
2023-04-30T16:28:41.607Z,101908.84
2023-04-30T16:31:11.320Z,101901.78
2023-04-30T16:33:39.708Z,101906.13
2023-04-30T16:36:08.273Z,101902.63
2023-04-30T16:38:37.197Z,101883.38
2023-04-30T16:41:05.388Z,101909.66
2023-04-30T16:43:33.614Z,101899.09
2023-04-30T16:46:03.406Z,101907.91
2023-04-30T16:48:31.548Z,101900.81
2023-04-30T16:51:00.071Z,101900.84
2023-04-30T16:53:29.178Z,101884.97
2023-04-30T16:55:57.877Z,101914.81
2023-04-30T16:58:26.631Z,101903.50
2023-04-30T17:00:56.801Z,101904.47
2023-04-30T17:03:26.771Z,101880.34
2023-04-30T17:05:55.257Z,101884.81
2023-04-30T17:08:23.772Z,101891.78
2023-04-30T17:10:52.153Z,101879.38
2023-04-30T17:13:20.631Z,101893.75
2023-04-30T17:15:49.339Z,101876.91
2023-04-30T17:18:17.655Z,101883.13
2023-04-30T17:20:49.936Z,101886.72
2023-04-30T17:23:17.983Z,101890.91
2023-04-30T17:25:46.364Z,101868.47
2023-04-30T17:28:14.869Z,101874.72
2023-04-30T17:30:44.738Z,101884.59
2023-04-30T17:33:13.238Z,101891.53
2023-04-30T17:35:41.921Z,101883.59
2023-04-30T17:38:12.277Z,101888.13
2023-04-30T17:40:41.032Z,101888.19
2023-04-30T17:43:09.607Z,101895.25
2023-04-30T17:45:37.952Z,101898.63
2023-04-30T17:48:06.295Z,101882.91
2023-04-30T17:50:34.967Z,101886.09
2023-04-30T17:53:03.251Z,101881.13
2023-04-30T17:55:33.938Z,101872.41
2023-04-30T17:58:03.976Z,101882.97
2023-04-30T18:00:32.445Z,101881.91
2023-04-30T18:03:00.708Z,101893.28
2023-04-30T18:05:28.986Z,101882.66
2023-04-30T18:07:56.999Z,101887.94
2023-04-30T18:10:28.144Z,101887.19
2023-04-30T18:12:59.572Z,101885.34
2023-04-30T18:15:28.548Z,101869.34
2023-04-30T18:17:57.056Z,101886.03
2023-04-30T18:20:25.670Z,101876.91
2023-04-30T18:22:53.915Z,101882.59
2023-04-30T18:25:22.687Z,101882.59
2023-04-30T18:27:51.530Z,101880.53
2023-04-30T18:30:21.075Z,101883.28
2023-04-30T18:32:49.272Z,101875.47
2023-04-30T18:35:18.003Z,101880.84
2023-04-30T18:37:46.773Z,101855.75
2023-04-30T18:40:15.692Z,101871.69
2023-04-30T18:42:43.948Z,101874.19
2023-04-30T18:45:12.450Z,101882.31
2023-04-30T18:47:42.314Z,101889.28
2023-04-30T18:50:15.844Z,101878.78
2023-04-30T18:52:45.300Z,101881.38
2023-04-30T18:55:14.454Z,101882.22
2023-04-30T18:57:43.509Z,101893.38
2023-04-30T19:00:14.318Z,101878.66
2023-04-30T19:02:44.266Z,101892.91
2023-04-30T19:05:12.609Z,101896.41
2023-04-30T19:07:41.550Z,101876.03
2023-04-30T19:10:10.361Z,101880.31
2023-04-30T19:12:39.333Z,101898.16
2023-04-30T19:15:11.628Z,101898.03
2023-04-30T19:17:40.466Z,101893.66
2023-04-30T19:20:11.796Z,101890.28
2023-04-30T19:22:40.698Z,101906.69
2023-04-30T19:25:12.543Z,101883.84
2023-04-30T19:27:41.140Z,101898.69
2023-04-30T19:30:10.492Z,101901.41
2023-04-30T19:32:39.081Z,101887.31
2023-04-30T19:35:12.706Z,101882.81
2023-04-30T19:37:41.404Z,101882.19
2023-04-30T19:40:12.028Z,101839.84
2023-04-30T19:42:41.016Z,101892.31
2023-04-30T19:45:13.388Z,101885.22
2023-04-30T19:47:41.642Z,101886.56
2023-04-30T19:50:12.110Z,101887.63
2023-04-30T19:52:40.338Z,101885.00
2023-04-30T19:55:09.860Z,101873.50
2023-04-30T19:57:37.980Z,101881.38
2023-04-30T20:00:07.150Z,101880.50
2023-04-30T20:02:35.484Z,101887.53
2023-04-30T20:05:06.475Z,101888.06
2023-04-30T20:07:37.003Z,101879.41
2023-04-30T20:10:05.639Z,101873.06
2023-04-30T20:12:33.766Z,101880.34
2023-04-30T20:15:02.418Z,101879.63
2023-04-30T20:17:30.649Z,101876.81
2023-04-30T20:19:59.143Z,101850.34
2023-04-30T20:22:28.264Z,101857.44
2023-04-30T20:24:58.424Z,101886.38
2023-04-30T20:27:26.860Z,101866.16
2023-04-30T20:29:55.837Z,101882.66
2023-04-30T20:32:24.382Z,101882.94
2023-04-30T20:34:52.916Z,101869.81
2023-04-30T20:37:21.438Z,101875.75
2023-04-30T20:39:50.729Z,101862.41
2023-04-30T20:42:20.394Z,101878.50
2023-04-30T20:44:48.713Z,101872.56
2023-04-30T20:47:16.963Z,101873.44
2023-04-30T20:49:45.260Z,101855.53
2023-04-30T20:52:15.656Z,101855.03
2023-04-30T20:54:44.305Z,101850.75
2023-04-30T20:57:12.618Z,101852.34
2023-04-30T20:59:42.657Z,101863.84
2023-04-30T21:02:10.935Z,101863.78
2023-04-30T21:04:39.148Z,101843.66
2023-04-30T21:07:07.448Z,101847.16
2023-04-30T21:09:37.070Z,101860.09
2023-04-30T21:12:06.359Z,101835.53
2023-04-30T21:14:35.689Z,101867.25
2023-04-30T21:17:05.512Z,101871.16
2023-04-30T21:19:33.980Z,101860.00
2023-04-30T21:22:02.300Z,101859.06
2023-04-30T21:24:32.231Z,101851.63
2023-04-30T21:27:00.564Z,101855.25
2023-04-30T21:29:28.804Z,101862.53
2023-04-30T21:31:57.386Z,101852.09
2023-04-30T21:34:27.716Z,101854.00
2023-04-30T21:36:56.715Z,101852.06
2023-04-30T21:39:25.330Z,101839.91
2023-04-30T21:41:53.701Z,101827.59
2023-04-30T21:44:22.075Z,101834.69
2023-04-30T21:46:50.888Z,101850.59
2023-04-30T21:49:19.009Z,101838.31
2023-04-30T21:51:48.946Z,101832.06
2023-04-30T21:54:19.329Z,101853.34
2023-04-30T21:56:47.591Z,101842.84
2023-04-30T21:59:17.873Z,101838.44
2023-04-30T22:01:46.412Z,101830.25
2023-04-30T22:04:15.513Z,101841.91
2023-04-30T22:06:43.765Z,101826.19
2023-04-30T22:09:21.394Z,101831.72
2023-04-30T22:11:50.390Z,101835.31
2023-04-30T22:14:18.668Z,101826.44
2023-04-30T22:16:51.277Z,101836.94
2023-04-30T22:19:19.768Z,101837.38
2023-04-30T22:21:47.852Z,101836.66
2023-04-30T22:24:16.567Z,101838.66
2023-04-30T22:26:46.032Z,101833.50
2023-04-30T22:29:14.047Z,101824.66
2023-04-30T22:31:42.392Z,101817.63
2023-04-30T22:34:10.929Z,101829.91
2023-04-30T22:36:38.925Z,101829.03
2023-04-30T22:39:07.342Z,101831.72
2023-04-30T22:41:35.456Z,101832.56
2023-04-30T22:44:05.826Z,101773.28
2023-04-30T22:46:36.872Z,101832.22
2023-04-30T22:49:05.166Z,101819.84
2023-04-30T22:51:36.480Z,101820.97
2023-04-30T22:54:05.276Z,101822.75
2023-04-30T22:56:34.044Z,101808.78
2023-04-30T22:59:03.083Z,101817.41
2023-04-30T23:01:33.516Z,101826.31
2023-04-30T23:04:01.661Z,101821.09
2023-04-30T23:06:30.430Z,101810.47
2023-04-30T23:08:58.882Z,101786.66
2023-04-30T23:11:27.297Z,101819.41
2023-04-30T23:13:55.888Z,101815.72
2023-04-30T23:16:24.328Z,101813.91
2023-04-30T23:18:54.002Z,101778.75
2023-04-30T23:21:22.535Z,101815.84
2023-04-30T23:23:51.188Z,101787.50
2023-04-30T23:26:19.359Z,101808.91
2023-04-30T23:28:47.368Z,101808.94
2023-04-30T23:31:18.255Z,101811.00
2023-04-30T23:33:46.344Z,101810.28
2023-04-30T23:36:16.157Z,101810.56
2023-04-30T23:38:46.779Z,101803.59
2023-04-30T23:41:15.548Z,101798.19
2023-04-30T23:43:43.909Z,101797.13
2023-04-30T23:46:12.269Z,101796.47
2023-04-30T23:48:40.946Z,101784.19
2023-04-30T23:51:09.475Z,101781.56
2023-04-30T23:53:39.692Z,101793.09
2023-04-30T23:56:08.505Z,101772.78
2023-04-30T23:58:36.756Z,101795.66
